TimeMST,TemperatureF,Dew PointF,Humidity,Sea Level PressureIn,VisibilityMPH,Wind Direction,Wind SpeedMPH,Gust SpeedMPH,PrecipitationIn,Events,Conditions,WindDirDegrees,DateUTC
12:53 AM,24.1,23.0,96,29.90,9.0,Calm,Calm,-,N/A,,Clear,0,2013-12-03 07:53:00
1:53 AM,24.1,21.9,91,29.87,10.0,Calm,Calm,-,N/A,,Clear,0,2013-12-03 08:53:00
2:53 AM,23.0,21.9,96,29.83,10.0,NW,3.5,-,N/A,,Clear,310,2013-12-03 09:53:00
3:53 AM,21.9,19.9,92,29.82,10.0,NNE,3.5,-,N/A,,Clear,30,2013-12-03 10:53:00
4:53 AM,23.0,21.0,92,29.80,10.0,Calm,Calm,-,N/A,,Clear,0,2013-12-03 11:53:00
5:53 AM,21.9,19.9,92,29.82,10.0,East,5.8,-,N/A,,Clear,80,2013-12-03 12:53:00
6:53 AM,21.0,19.0,92,29.83,10.0,Calm,Calm,-,N/A,,Clear,0,2013-12-03 13:53:00
7:53 AM,24.1,21.0,88,29.81,10.0,East,6.9,-,N/A,,Clear,100,2013-12-03 14:53:00
8:53 AM,33.1,28.0,82,29.80,10.0,Calm,Calm,-,N/A,,Clear,0,2013-12-03 15:53:00
9:53 AM,41.0,30.0,65,29.75,10.0,Variable,3.5,-,N/A,,Clear,0,2013-12-03 16:53:00
10:53 AM,43.0,27.0,53,29.72,10.0,Calm,Calm,-,N/A,,Clear,0,2013-12-03 17:53:00
11:53 AM,48.9,23.0,36,29.63,10.0,SSW,15.0,26.5,N/A,,Clear,210,2013-12-03 18:53:00
12:53 PM,50.0,23.0,35,29.61,10.0,SW,12.7,23.0,N/A,,Clear,220,2013-12-03 19:53:00
1:53 PM,52.0,24.1,34,29.57,10.0,SSW,18.4,23.0,N/A,,Clear,200,2013-12-03 20:53:00
2:53 PM,51.1,23.0,33,29.55,10.0,SSW,10.4,-,N/A,,Clear,210,2013-12-03 21:53:00
3:53 PM,50.0,23.0,35,29.53,10.0,South,9.2,-,N/A,,Clear,180,2013-12-03 22:53:00
4:53 PM,46.9,24.1,41,29.53,10.0,Variable,4.6,-,N/A,,Scattered Clouds,0,2013-12-03 23:53:00
5:53 PM,46.9,24.1,41,29.52,10.0,SE,6.9,-,N/A,,Overcast,140,2013-12-04 00:53:00
6:53 PM,43.0,27.0,53,29.53,10.0,SSW,3.5,-,N/A,,Overcast,210,2013-12-04 01:53:00
7:53 PM,46.9,28.9,50,29.49,10.0,SSW,15.0,-,N/A,,Overcast,210,2013-12-04 02:53:00
8:53 PM,48.0,28.0,46,29.46,10.0,SW,19.6,28.8,N/A,,Mostly Cloudy,220,2013-12-04 03:53:00
9:53 PM,46.0,28.0,50,29.45,10.0,SSW,12.7,-,N/A,,Overcast,210,2013-12-04 04:53:00
10:53 PM,44.1,27.0,51,29.46,10.0,SSW,11.5,-,N/A,,Scattered Clouds,200,2013-12-04 05:53:00
11:53 PM,44.1,26.1,49,29.44,10.0,SSW,19.6,-,N/A,,Partly Cloudy,210,2013-12-04 06:53:00